createdAt,value
2023-04-07T00:03:28.906Z,1013.5
2023-04-07T00:08:28.829Z,1013.5
2023-04-07T00:13:29.570Z,1013.6
2023-04-07T00:18:28.802Z,1013.6
2023-04-07T00:23:28.715Z,1013.7
2023-04-07T00:28:28.815Z,1013.7
2023-04-07T00:33:28.725Z,1013.7
2023-04-07T00:38:28.829Z,1013.7
2023-04-07T00:43:28.726Z,1013.8
2023-04-07T00:48:28.865Z,1013.8
2023-04-07T00:53:28.705Z,1013.8
2023-04-07T00:58:28.802Z,1013.9
2023-04-07T01:03:28.951Z,1013.8
2023-04-07T01:08:28.820Z,1013.9
2023-04-07T01:13:28.732Z,1013.9
2023-04-07T01:18:28.804Z,1013.9
2023-04-07T01:23:28.728Z,1014.0
2023-04-07T01:28:28.775Z,1014.0
2023-04-07T01:33:28.724Z,1014.0
2023-04-07T01:38:28.779Z,1014.0
2023-04-07T01:43:28.717Z,1014.0
2023-04-07T01:48:28.782Z,1014.0
2023-04-07T01:53:28.736Z,1014.1
2023-04-07T01:58:28.830Z,1014.2
2023-04-07T02:03:28.814Z,1014.1
2023-04-07T02:08:30.046Z,1014.1
2023-04-07T02:13:28.752Z,1014.1
2023-04-07T02:18:28.800Z,1014.1
2023-04-07T02:23:28.749Z,1014.1
2023-04-07T02:28:28.837Z,1014.1
2023-04-07T02:33:28.728Z,1014.2
2023-04-07T02:38:28.824Z,1014.2
2023-04-07T02:43:28.743Z,1014.3
2023-04-07T02:48:28.837Z,1014.4
2023-04-07T02:53:28.737Z,1014.4
2023-04-07T02:58:28.833Z,1014.5
2023-04-07T03:03:28.961Z,1014.6
2023-04-07T03:08:28.880Z,1014.6
2023-04-07T03:13:28.724Z,1014.7
2023-04-07T03:18:28.840Z,1014.7
2023-04-07T03:23:28.736Z,1014.7
2023-04-07T03:28:28.840Z,1014.7
2023-04-07T03:33:28.741Z,1014.7
2023-04-07T03:38:28.838Z,1014.7
2023-04-07T03:43:28.747Z,1014.8
2023-04-07T03:48:29.385Z,1014.8
2023-04-07T03:53:28.747Z,1014.9
2023-04-07T03:58:28.804Z,1014.9
2023-04-07T04:03:28.920Z,1014.9
2023-04-07T04:08:28.860Z,1014.9
2023-04-07T04:13:28.730Z,1014.9
2023-04-07T04:18:28.803Z,1014.9
2023-04-07T04:23:28.747Z,1015.0
2023-04-07T04:28:28.839Z,1015.0
2023-04-07T04:33:28.741Z,1014.9
2023-04-07T04:38:28.845Z,1015.0
2023-04-07T04:43:28.747Z,1015.0
2023-04-07T04:48:28.840Z,1015.1
2023-04-07T04:53:28.753Z,1015.1
2023-04-07T04:58:28.854Z,1015.2
2023-04-07T05:03:28.920Z,1015.3
2023-04-07T05:08:28.873Z,1015.4
2023-04-07T05:13:28.763Z,1015.5
2023-04-07T05:18:28.842Z,1015.5
2023-04-07T05:23:28.759Z,1015.5
2023-04-07T05:28:28.853Z,1015.6
2023-04-07T05:33:28.734Z,1015.6
2023-04-07T05:38:28.862Z,1015.6
2023-04-07T05:43:28.768Z,1015.7
2023-04-07T05:48:28.818Z,1015.7
2023-04-07T05:53:28.774Z,1015.6
2023-04-07T05:58:28.858Z,1015.7
2023-04-07T06:03:28.855Z,1015.7
2023-04-07T06:08:28.848Z,1015.7
2023-04-07T06:13:28.757Z,1015.8
2023-04-07T06:18:28.863Z,1015.9
2023-04-07T06:23:28.765Z,1015.9
2023-04-07T06:28:28.858Z,1016.0
2023-04-07T06:33:28.761Z,1015.9
2023-04-07T06:38:28.862Z,1016.0
2023-04-07T06:43:28.778Z,1016.0
2023-04-07T06:48:28.852Z,1016.1
2023-04-07T06:53:28.763Z,1016.1
2023-04-07T06:58:29.108Z,1016.2
2023-04-07T07:03:28.989Z,1016.2
2023-04-07T07:08:28.842Z,1016.2
2023-04-07T07:13:28.786Z,1016.3
2023-04-07T07:18:30.432Z,1016.3
2023-04-07T07:23:28.765Z,1016.4
2023-04-07T07:28:28.848Z,1016.3
2023-04-07T07:33:28.769Z,1016.3
2023-04-07T07:38:28.832Z,1016.4
2023-04-07T07:43:28.782Z,1016.4
2023-04-07T07:48:28.831Z,1016.5
2023-04-07T07:53:28.803Z,1016.6
2023-04-07T08:03:28.973Z,1016.7
2023-04-07T08:08:28.893Z,1016.6
2023-04-07T08:13:28.785Z,1016.7
2023-04-07T08:18:28.877Z,1016.8
2023-04-07T08:23:28.779Z,1016.7
2023-04-07T08:28:28.872Z,1016.7
2023-04-07T08:33:28.790Z,1016.7
2023-04-07T08:38:28.873Z,1016.7
2023-04-07T08:43:28.772Z,1016.7
2023-04-07T08:48:28.913Z,1016.7
2023-04-07T08:53:28.790Z,1016.7
2023-04-07T08:58:28.881Z,1016.7
2023-04-07T09:03:28.872Z,1016.7
2023-04-07T09:08:28.902Z,1016.7
2023-04-07T09:13:28.797Z,1016.8
2023-04-07T09:18:28.842Z,1016.7
2023-04-07T09:23:28.800Z,1016.7
2023-04-07T09:28:28.836Z,1016.8
2023-04-07T09:33:28.787Z,1016.7
2023-04-07T09:38:28.881Z,1016.8
2023-04-07T09:43:28.784Z,1016.8
2023-04-07T09:48:28.838Z,1016.8
2023-04-07T09:53:28.794Z,1016.8
2023-04-07T09:58:28.878Z,1016.7
2023-04-07T10:03:28.850Z,1016.7
2023-04-07T10:08:28.903Z,1016.7
2023-04-07T10:13:28.787Z,1016.7
2023-04-07T10:18:28.841Z,1016.7
2023-04-07T10:23:28.801Z,1016.7
2023-04-07T10:28:28.858Z,1016.7
2023-04-07T10:33:28.817Z,1016.7
2023-04-07T10:38:28.855Z,1016.7
2023-04-07T10:43:28.890Z,1016.7
2023-04-07T10:48:28.894Z,1016.7
2023-04-07T10:53:28.814Z,1016.7
2023-04-07T10:58:28.779Z,1016.8
2023-04-07T11:03:28.994Z,1016.8
2023-04-07T11:08:28.874Z,1016.8
2023-04-07T11:13:28.806Z,1016.8
2023-04-07T11:18:28.943Z,1016.8
2023-04-07T11:23:28.827Z,1016.9
2023-04-07T11:28:28.871Z,1016.8
2023-04-07T11:33:28.819Z,1016.8
2023-04-07T11:38:28.870Z,1016.8
2023-04-07T11:43:28.818Z,1016.7
2023-04-07T11:48:28.915Z,1016.9
2023-04-07T11:53:28.817Z,1016.9
2023-04-07T11:58:28.933Z,1016.9
2023-04-07T12:03:28.965Z,1016.9
2023-04-07T12:08:28.905Z,1016.9
2023-04-07T12:13:28.813Z,1017.0
2023-04-07T12:18:28.883Z,1017.0
2023-04-07T12:23:28.814Z,1017.1
2023-04-07T12:28:28.884Z,1017.0
2023-04-07T12:33:28.818Z,1017.1
2023-04-07T12:38:28.888Z,1017.0
2023-04-07T12:43:28.858Z,1017.0
2023-04-07T12:48:28.878Z,1017.0
2023-04-07T12:53:28.822Z,1017.1
2023-04-07T12:58:28.919Z,1017.0
2023-04-07T13:03:29.092Z,1017.0
2023-04-07T13:08:28.881Z,1017.0
2023-04-07T13:13:28.826Z,1017.0
2023-04-07T13:18:28.892Z,1017.1
2023-04-07T13:23:28.807Z,1017.1
2023-04-07T13:28:28.926Z,1017.1
2023-04-07T13:33:28.821Z,1017.1
2023-04-07T13:38:28.940Z,1017.0
2023-04-07T13:43:28.833Z,1017.0
2023-04-07T13:48:28.923Z,1017.1
2023-04-07T13:53:28.826Z,1017.1
2023-04-07T13:58:30.529Z,1017.1
2023-04-07T14:03:28.956Z,1017.0
2023-04-07T14:08:28.940Z,1017.0
2023-04-07T14:13:28.827Z,1017.1
2023-04-07T14:18:28.922Z,1017.0
2023-04-07T14:23:36.621Z,1017.0
2023-04-07T14:28:28.918Z,1017.0
2023-04-07T14:33:28.832Z,1017.0
2023-04-07T14:38:28.894Z,1017.0
2023-04-07T14:43:28.833Z,1017.0
2023-04-07T14:48:28.891Z,1017.0
2023-04-07T14:53:28.843Z,1017.0
2023-04-07T14:58:28.889Z,1017.0
2023-04-07T15:03:29.122Z,1017.0
2023-04-07T15:08:28.904Z,1017.0
2023-04-07T15:13:28.845Z,1017.0
2023-04-07T15:18:28.917Z,1017.1
2023-04-07T15:23:28.850Z,1017.1
2023-04-07T15:28:28.913Z,1017.1
2023-04-07T15:33:28.841Z,1017.1
2023-04-07T15:38:28.900Z,1017.0
2023-04-07T15:43:28.852Z,1017.2
2023-04-07T15:48:28.909Z,1017.1
2023-04-07T15:53:28.846Z,1017.1
2023-04-07T15:58:28.937Z,1017.2
2023-04-07T16:03:29.118Z,1017.1
2023-04-07T16:08:28.931Z,1017.1
2023-04-07T16:13:28.848Z,1017.2
2023-04-07T16:18:28.895Z,1017.1
2023-04-07T16:23:28.841Z,1017.2
2023-04-07T16:28:28.897Z,1017.1
2023-04-07T16:33:28.874Z,1017.1
2023-04-07T16:38:28.934Z,1017.1
2023-04-07T16:43:28.853Z,1017.1
2023-04-07T16:48:28.930Z,1017.1
2023-04-07T16:53:28.842Z,1017.2
2023-04-07T16:58:28.931Z,1017.1
2023-04-07T17:03:29.194Z,1017.2
2023-04-07T17:08:28.942Z,1017.3
2023-04-07T17:13:28.843Z,1017.4
2023-04-07T17:18:28.940Z,1017.3
2023-04-07T17:23:28.866Z,1017.4
2023-04-07T17:28:28.942Z,1017.4
2023-04-07T17:33:30.575Z,1017.5
2023-04-07T17:38:28.904Z,1017.5
2023-04-07T17:43:28.825Z,1017.5
2023-04-07T17:48:28.934Z,1017.6
2023-04-07T17:53:28.872Z,1017.6
2023-04-07T17:58:28.903Z,1017.6
2023-04-07T18:03:29.013Z,1017.7
2023-04-07T18:08:28.925Z,1017.8
2023-04-07T18:13:28.853Z,1017.8
2023-04-07T18:18:28.942Z,1017.9
2023-04-07T18:23:28.902Z,1018.0
2023-04-07T18:28:28.908Z,1018.1
2023-04-07T18:33:28.862Z,1018.1
2023-04-07T18:38:28.910Z,1018.1
2023-04-07T18:43:28.838Z,1018.2
2023-04-07T18:48:28.950Z,1018.3
2023-04-07T18:53:28.870Z,1018.3
2023-04-07T18:58:28.914Z,1018.4
2023-04-07T19:03:29.017Z,1018.5
2023-04-07T19:08:29.063Z,1018.5
2023-04-07T19:13:28.865Z,1018.6
2023-04-07T19:18:28.960Z,1018.7
2023-04-07T19:23:28.873Z,1018.8
2023-04-07T19:28:28.943Z,1018.9
2023-04-07T19:33:28.878Z,1018.9
2023-04-07T19:38:28.994Z,1019.0
2023-04-07T19:43:28.865Z,1019.0
2023-04-07T19:48:28.946Z,1019.0
2023-04-07T19:53:28.882Z,1019.0
2023-04-07T19:58:28.951Z,1019.1
2023-04-07T20:03:28.941Z,1019.2
2023-04-07T20:08:28.960Z,1019.2
2023-04-07T20:13:28.902Z,1019.3
2023-04-07T20:18:28.950Z,1019.3
2023-04-07T20:23:28.885Z,1019.4
2023-04-07T20:28:28.988Z,1019.4
2023-04-07T20:33:28.903Z,1019.4
2023-04-07T20:38:28.993Z,1019.5
2023-04-07T20:43:28.907Z,1019.6
2023-04-07T20:48:28.984Z,1019.6
2023-04-07T20:53:28.886Z,1019.6
2023-04-07T20:58:28.950Z,1019.7
2023-04-07T21:03:29.106Z,1019.7
2023-04-07T21:08:29.009Z,1019.7
2023-04-07T21:13:28.900Z,1019.7
2023-04-07T21:18:28.962Z,1019.7
2023-04-07T21:23:28.942Z,1019.7
2023-04-07T21:28:28.972Z,1019.8
2023-04-07T21:33:28.907Z,1019.8
2023-04-07T21:38:29.005Z,1019.8
2023-04-07T21:43:28.903Z,1019.8
2023-04-07T21:48:28.970Z,1019.8
2023-04-07T21:53:28.915Z,1019.9
2023-04-07T21:58:28.964Z,1019.9
2023-04-07T22:03:29.129Z,1019.9
2023-04-07T22:08:29.047Z,1020.0
2023-04-07T22:13:28.937Z,1020.0
2023-04-07T22:18:29.003Z,1020.1
2023-04-07T22:23:28.984Z,1020.1
2023-04-07T22:28:29.020Z,1020.1
2023-04-07T22:33:28.933Z,1020.1
2023-04-07T22:38:29.077Z,1020.2
2023-04-07T22:43:28.911Z,1020.3
2023-04-07T22:48:29.024Z,1020.3
2023-04-07T22:53:28.920Z,1020.3
2023-04-07T22:58:29.013Z,1020.3
2023-04-07T23:03:29.184Z,1020.3
2023-04-07T23:08:29.034Z,1020.4
2023-04-07T23:13:28.899Z,1020.4
2023-04-07T23:18:29.019Z,1020.4
2023-04-07T23:23:28.938Z,1020.4
2023-04-07T23:28:29.036Z,1020.4
2023-04-07T23:33:28.930Z,1020.4
2023-04-07T23:38:29.034Z,1020.4
2023-04-07T23:43:28.972Z,1020.5
2023-04-07T23:48:29.037Z,1020.5
2023-04-07T23:53:28.960Z,1020.6
2023-04-07T23:58:29.006Z,1020.6
